createdAt,value
2022-11-19T00:02:55.301Z,10.45
2022-11-19T00:06:58.610Z,8.98
2022-11-19T00:11:09.639Z,9.45
2022-11-19T00:15:12.768Z,9.52
2022-11-19T00:19:15.559Z,9.07
2022-11-19T00:23:18.593Z,9.05
2022-11-19T00:27:21.314Z,9.05
2022-11-19T00:31:24.307Z,9.20
2022-11-19T00:35:27.225Z,10.18
2022-11-19T00:39:30.043Z,9.77
2022-11-19T00:43:48.620Z,8.48
2022-11-19T00:47:51.828Z,9.13
2022-11-19T00:51:55.848Z,6.50
2022-11-19T00:56:09.741Z,8.02
2022-11-19T01:00:13.020Z,9.65
2022-11-19T01:04:15.839Z,8.18
2022-11-19T01:08:19.266Z,7.22
2022-11-19T01:12:22.427Z,6.28
2022-11-19T01:16:27.863Z,4.78
2022-11-19T01:20:30.687Z,6.47
2022-11-19T01:24:33.580Z,5.20
2022-11-19T01:28:36.816Z,5.72
2022-11-19T01:32:39.691Z,4.43
2022-11-19T01:36:42.646Z,4.15
2022-11-19T01:40:45.903Z,4.80
2022-11-19T01:45:01.232Z,6.47
2022-11-19T01:49:14.739Z,5.25
2022-11-19T01:53:19.516Z,4.75
2022-11-19T01:57:22.502Z,4.43
2022-11-19T02:01:25.440Z,5.70
2022-11-19T02:05:28.784Z,5.45
2022-11-19T02:09:33.811Z,4.18
2022-11-19T02:13:51.145Z,4.53
2022-11-19T02:18:12.129Z,4.53
2022-11-19T02:22:27.231Z,5.20
2022-11-19T02:27:14.599Z,5.88
2022-11-19T02:31:30.810Z,5.45
2022-11-19T02:35:45.566Z,5.25
2022-11-19T02:39:55.160Z,6.38
2022-11-19T02:44:25.111Z,6.43
2022-11-19T02:48:42.173Z,6.30
2022-11-19T02:52:46.651Z,5.22
2022-11-19T02:57:00.447Z,4.30
2022-11-19T03:01:23.669Z,6.80
2022-11-19T03:05:31.013Z,7.72
2022-11-19T03:09:36.699Z,8.20
2022-11-19T03:14:17.729Z,7.38
2022-11-19T03:18:40.906Z,7.03
2022-11-19T03:22:56.111Z,6.30
2022-11-19T03:27:08.717Z,7.88
2022-11-19T03:31:12.457Z,7.82
2022-11-19T03:35:19.534Z,7.15
2022-11-19T03:39:23.100Z,6.30
2022-11-19T03:43:29.492Z,5.80
2022-11-19T03:47:37.062Z,6.05
2022-11-19T03:51:55.200Z,5.38
2022-11-19T03:56:02.013Z,6.22
2022-11-19T04:00:05.573Z,6.47
2022-11-19T04:04:34.327Z,6.90
2022-11-19T04:08:37.172Z,7.57
2022-11-19T04:12:40.116Z,5.53
2022-11-19T04:16:42.994Z,6.68
2022-11-19T04:20:46.161Z,6.20
2022-11-19T04:24:49.225Z,6.18
2022-11-19T04:28:51.937Z,5.65
2022-11-19T04:32:54.740Z,5.75
2022-11-19T04:36:57.510Z,5.15
2022-11-19T04:41:00.939Z,4.20
2022-11-19T04:45:04.128Z,3.83
2022-11-19T04:49:07.141Z,5.90
2022-11-19T04:53:10.032Z,6.35
2022-11-19T04:57:12.868Z,7.30
2022-11-19T05:01:16.038Z,7.03
2022-11-19T05:05:19.297Z,7.05
2022-11-19T05:09:22.389Z,6.80
2022-11-19T05:13:25.279Z,7.15
2022-11-19T05:17:28.046Z,6.93
2022-11-19T05:21:30.853Z,7.50
2022-11-19T05:25:33.569Z,6.78
2022-11-19T05:29:36.375Z,7.22
2022-11-19T05:33:39.228Z,6.78
2022-11-19T05:37:42.101Z,6.32
2022-11-19T05:41:44.921Z,6.57
2022-11-19T05:45:47.701Z,6.65
2022-11-19T05:49:50.453Z,6.50
2022-11-19T05:53:53.355Z,5.93
2022-11-19T05:57:56.406Z,5.60
2022-11-19T06:01:59.371Z,6.25
2022-11-19T06:06:02.257Z,6.78
2022-11-19T06:10:05.696Z,5.93
2022-11-19T06:14:08.651Z,4.63
2022-11-19T06:18:12.185Z,4.97
2022-11-19T06:22:15.048Z,3.45
2022-11-19T06:26:29.028Z,2.28
2022-11-19T06:30:31.790Z,3.25
2022-11-19T06:34:36.314Z,5.38
2022-11-19T06:38:39.103Z,4.75
2022-11-19T06:42:41.944Z,4.43
2022-11-19T06:46:44.912Z,4.47
2022-11-19T06:50:48.003Z,3.28
2022-11-19T06:54:50.977Z,4.00
2022-11-19T06:58:57.968Z,3.25
2022-11-19T07:03:00.735Z,7.38
2022-11-19T07:07:04.686Z,7.45
2022-11-19T07:11:26.160Z,7.80
2022-11-19T07:15:29.112Z,8.02
2022-11-19T07:19:32.070Z,7.90
2022-11-19T07:23:34.780Z,7.53
2022-11-19T07:27:37.544Z,7.35
2022-11-19T07:31:40.380Z,7.22
2022-11-19T07:35:43.190Z,6.80
2022-11-19T07:39:47.013Z,7.13
2022-11-19T07:43:49.819Z,7.00
2022-11-19T07:47:52.719Z,6.05
2022-11-19T07:51:55.662Z,5.50
2022-11-19T07:56:02.041Z,5.53
2022-11-19T08:00:06.533Z,5.43
2022-11-19T08:04:15.208Z,8.27
2022-11-19T08:08:18.079Z,6.25
2022-11-19T08:12:20.793Z,6.53
2022-11-19T08:16:42.239Z,4.65
2022-11-19T08:20:48.611Z,5.20
2022-11-19T08:24:51.665Z,5.07
2022-11-19T08:28:54.720Z,6.15
2022-11-19T08:32:57.657Z,5.85
2022-11-19T08:37:00.413Z,4.75
2022-11-19T08:41:22.048Z,5.18
2022-11-19T08:45:27.073Z,4.95
2022-11-19T08:49:29.807Z,5.07
2022-11-19T08:53:33.276Z,5.82
2022-11-19T08:57:36.207Z,13.45
2022-11-19T09:01:40.023Z,12.35
2022-11-19T09:05:42.794Z,10.20
2022-11-19T09:09:45.816Z,7.10
2022-11-19T09:13:51.366Z,7.60
2022-11-19T09:17:56.923Z,7.72
2022-11-19T09:21:59.671Z,6.28
2022-11-19T09:26:08.899Z,6.15
2022-11-19T09:30:12.033Z,6.00
2022-11-19T09:34:14.766Z,6.60
2022-11-19T09:38:17.533Z,6.32
2022-11-19T09:42:45.156Z,7.80
2022-11-19T09:47:02.308Z,8.18
2022-11-19T09:51:17.343Z,27.60
2022-11-19T09:55:25.669Z,21.27
2022-11-19T09:59:41.906Z,21.20
2022-11-19T10:03:50.952Z,14.80
2022-11-19T10:08:12.388Z,9.82
2022-11-19T10:12:35.524Z,9.05
2022-11-19T10:17:16.051Z,7.68
2022-11-19T10:21:30.853Z,8.77
2022-11-19T10:25:39.605Z,7.50
2022-11-19T10:29:42.440Z,9.45
2022-11-19T10:34:25.537Z,8.07
2022-11-19T10:38:38.004Z,8.30
2022-11-19T10:42:47.320Z,7.35
2022-11-19T10:46:50.520Z,8.48
2022-11-19T10:50:55.847Z,6.65
2022-11-19T10:55:05.331Z,6.85
2022-11-19T10:59:17.404Z,6.50
2022-11-19T11:03:45.948Z,5.53
2022-11-19T11:07:54.919Z,5.30
2022-11-19T11:12:33.623Z,4.93
2022-11-19T11:16:54.543Z,6.93
2022-11-19T11:20:57.888Z,7.75
2022-11-19T11:25:07.039Z,14.65
2022-11-19T11:29:13.229Z,6.38
2022-11-19T11:33:29.684Z,7.00
2022-11-19T11:37:33.412Z,8.32
2022-11-19T11:46:09.635Z,10.38
2022-11-19T11:50:22.257Z,11.05
2022-11-19T11:54:25.071Z,5.68
2022-11-19T11:58:27.837Z,4.20
2022-11-19T12:02:33.561Z,4.00
2022-11-19T12:06:48.511Z,7.17
2022-11-19T12:11:12.840Z,6.65
2022-11-19T12:15:26.081Z,9.02
2022-11-19T12:19:31.516Z,2.20
2022-11-19T12:24:07.997Z,2.35
2022-11-19T12:28:29.123Z,2.03
2022-11-19T12:32:50.107Z,2.65
2022-11-19T12:37:14.770Z,3.05
2022-11-19T12:41:47.102Z,2.35
2022-11-19T12:46:05.128Z,3.28
2022-11-19T12:50:32.791Z,3.05
2022-11-19T12:54:38.618Z,4.57
2022-11-19T12:58:41.311Z,5.05
2022-11-19T13:03:14.873Z,4.28
2022-11-19T13:07:32.111Z,2.10
2022-11-19T13:11:39.812Z,1.40
2022-11-19T13:16:11.290Z,2.08
2022-11-19T13:20:37.234Z,22.23
2022-11-19T13:24:52.426Z,33.42
2022-11-19T13:29:33.745Z,25.63
2022-11-19T13:33:49.396Z,8.38
2022-11-19T13:44:28.807Z,2.53
2022-11-19T13:49:03.426Z,10.93
2022-11-19T13:53:32.123Z,5.57
2022-11-19T13:57:43.740Z,2.30
2022-11-19T14:01:59.164Z,2.65
2022-11-19T14:06:25.426Z,9.63
2022-11-19T14:10:43.474Z,6.20
2022-11-19T14:15:37.438Z,5.32
2022-11-19T14:20:14.679Z,2.35
2022-11-19T14:24:46.197Z,3.17
2022-11-19T14:28:53.099Z,2.67
2022-11-19T14:32:57.857Z,2.30
2022-11-19T14:37:21.264Z,1.80
2022-11-19T14:41:36.989Z,2.00
2022-11-19T14:46:07.896Z,1.60
2022-11-19T14:50:39.064Z,1.73
2022-11-19T14:54:56.753Z,1.80
2022-11-19T14:59:19.217Z,14.07
2022-11-19T15:03:28.678Z,21.77
2022-11-19T15:07:35.870Z,3.60
2022-11-19T15:11:57.532Z,2.05
2022-11-19T15:16:06.880Z,2.50
2022-11-19T15:20:22.435Z,2.05
2022-11-19T15:24:37.003Z,3.55
2022-11-19T15:28:54.839Z,3.00
2022-11-19T15:33:22.855Z,2.20
2022-11-19T15:37:53.721Z,1.80
2022-11-19T15:42:02.275Z,1.58
2022-11-19T15:46:16.633Z,1.90
2022-11-19T15:50:22.391Z,1.88
2022-11-19T15:54:30.441Z,7.63
2022-11-19T15:58:39.220Z,2.20
2022-11-19T16:02:43.771Z,2.10
2022-11-19T16:06:50.900Z,1.80
2022-11-19T16:11:19.984Z,2.13
2022-11-19T16:15:44.440Z,2.38
2022-11-19T16:20:02.022Z,2.17
2022-11-19T16:24:31.799Z,1.80
2022-11-19T16:28:35.483Z,1.80
2022-11-19T16:32:38.267Z,1.55
2022-11-19T16:36:47.564Z,1.52
2022-11-19T16:41:08.846Z,1.67
2022-11-19T16:45:24.399Z,2.40
2022-11-19T16:49:32.875Z,1.92
2022-11-19T16:53:46.652Z,1.65
2022-11-19T16:57:52.128Z,3.75
2022-11-19T17:01:59.949Z,33.03
2022-11-19T17:06:05.009Z,53.70
2022-11-19T17:10:14.011Z,11.48
2022-11-19T17:14:23.138Z,3.15
2022-11-19T17:18:32.538Z,4.65
2022-11-19T17:22:36.859Z,4.32
2022-11-19T17:26:39.778Z,2.40
2022-11-19T17:30:45.031Z,2.30
2022-11-19T17:34:49.431Z,2.17
2022-11-19T17:38:52.758Z,2.20
2022-11-19T17:43:14.105Z,2.28
2022-11-19T17:47:23.577Z,1.77
2022-11-19T17:51:27.090Z,1.80
2022-11-19T17:55:30.957Z,1.95
2022-11-19T17:59:33.825Z,1.80
2022-11-19T18:03:39.223Z,12.10
2022-11-19T18:07:50.737Z,7.80
2022-11-19T18:11:55.128Z,2.20
2022-11-19T18:15:58.138Z,2.63
2022-11-19T18:20:00.951Z,2.10
2022-11-19T18:24:03.790Z,2.88
2022-11-19T18:28:06.492Z,1.77
2022-11-19T18:32:15.381Z,3.20
2022-11-19T18:36:18.848Z,2.03
2022-11-19T18:40:26.394Z,2.30
2022-11-19T18:44:35.595Z,1.80
2022-11-19T18:48:41.381Z,1.50
2022-11-19T18:52:44.090Z,1.55
2022-11-19T18:56:47.156Z,1.00
2022-11-19T19:00:50.032Z,1.10
2022-11-19T19:04:54.844Z,1.10
2022-11-19T19:08:58.152Z,1.20
2022-11-19T19:13:01.824Z,0.90
2022-11-19T19:17:04.655Z,1.10
2022-11-19T19:21:15.142Z,1.10
2022-11-19T19:25:17.930Z,1.30
2022-11-19T19:29:21.012Z,1.00
2022-11-19T19:33:24.134Z,1.00
2022-11-19T19:37:26.992Z,1.08
2022-11-19T19:41:29.807Z,10.65
2022-11-19T19:45:36.002Z,2.78
2022-11-19T19:49:39.707Z,8.93
2022-11-19T19:53:43.224Z,2.50
2022-11-19T19:57:45.992Z,3.92
2022-11-19T20:01:50.933Z,2.45
2022-11-19T20:05:53.865Z,1.25
2022-11-19T20:09:56.781Z,1.20
2022-11-19T20:14:01.069Z,1.10
2022-11-19T20:18:05.018Z,0.90
2022-11-19T20:22:07.831Z,1.17
2022-11-19T20:26:16.092Z,1.40
2022-11-19T20:30:19.163Z,2.00
2022-11-19T20:34:22.221Z,1.30
2022-11-19T20:38:25.413Z,1.38
2022-11-19T20:42:46.783Z,1.15
2022-11-19T20:47:03.751Z,1.50
2022-11-19T20:51:08.221Z,1.30
2022-11-19T20:55:12.366Z,1.95
2022-11-19T20:59:19.885Z,1.33
2022-11-19T21:03:23.263Z,1.80
2022-11-19T21:07:26.004Z,1.17
2022-11-19T21:11:28.707Z,1.05
2022-11-19T21:15:35.994Z,1.00
2022-11-19T21:19:39.688Z,0.80
2022-11-19T21:23:43.890Z,0.80
2022-11-19T21:27:46.783Z,0.90
2022-11-19T21:31:49.564Z,1.00
2022-11-19T21:35:53.866Z,0.90
2022-11-19T21:39:56.658Z,0.90
2022-11-19T21:44:01.323Z,0.90
2022-11-19T21:48:04.193Z,0.85
2022-11-19T21:52:07.230Z,0.70
2022-11-19T21:56:10.122Z,0.70
2022-11-19T22:00:13.521Z,0.80
2022-11-19T22:04:16.180Z,1.00
2022-11-19T22:08:18.859Z,0.90
2022-11-19T22:12:21.586Z,0.90
2022-11-19T22:16:24.482Z,0.80
2022-11-19T22:20:27.371Z,0.80
2022-11-19T22:24:30.306Z,0.98
2022-11-19T22:28:33.396Z,1.08
2022-11-19T22:32:36.109Z,1.35
2022-11-19T22:36:38.984Z,1.30
2022-11-19T22:40:41.853Z,1.13
2022-11-19T22:44:44.657Z,1.50
2022-11-19T22:48:47.607Z,1.23
2022-11-19T22:52:50.338Z,1.38
2022-11-19T22:56:53.257Z,1.23
2022-11-19T23:00:56.236Z,1.40
2022-11-19T23:04:59.038Z,1.58
2022-11-19T23:09:03.421Z,1.70
2022-11-19T23:13:24.476Z,1.50
2022-11-19T23:17:27.338Z,1.30
2022-11-19T23:21:30.592Z,1.30
2022-11-19T23:25:33.316Z,0.95
2022-11-19T23:29:36.107Z,1.10
2022-11-19T23:33:39.150Z,0.90
2022-11-19T23:37:41.975Z,0.90
2022-11-19T23:41:45.624Z,1.20
2022-11-19T23:45:48.453Z,1.15
2022-11-19T23:49:51.208Z,1.10
2022-11-19T23:53:54.323Z,1.20
2022-11-19T23:57:57.127Z,1.17
